sensor_id;sensor_type;location;lat;lon;timestamp;pressure;altitude;pressure_sealevel;temperature;humidity
18795;BME280;29610;49.022;12.114;2023-04-21T00:00:18;97371.50;;;9.65;100.00
18795;BME280;29610;49.022;12.114;2023-04-21T00:03:07;97368.31;;;9.63;100.00
18795;BME280;29610;49.022;12.114;2023-04-21T00:05:59;97372.16;;;9.62;100.00
18795;BME280;29610;49.022;12.114;2023-04-21T00:08:48;97366.75;;;9.53;100.00
18795;BME280;29610;49.022;12.114;2023-04-21T00:11:38;97361.50;;;9.40;100.00
18795;BME280;29610;49.022;12.114;2023-04-21T00:14:27;97365.19;;;9.27;100.00
18795;BME280;29610;49.022;12.114;2023-04-21T00:17:16;97359.28;;;9.33;100.00
18795;BME280;29610;49.022;12.114;2023-04-21T00:20:07;97359.59;;;9.32;100.00
18795;BME280;29610;49.022;12.114;2023-04-21T00:22:58;97358.47;;;9.41;100.00
18795;BME280;29610;49.022;12.114;2023-04-21T00:25:47;97347.94;;;9.31;100.00
18795;BME280;29610;49.022;12.114;2023-04-21T00:28:37;97358.81;;;9.31;100.00
18795;BME280;29610;49.022;12.114;2023-04-21T00:31:26;97354.81;;;9.29;100.00
18795;BME280;29610;49.022;12.114;2023-04-21T00:34:15;97356.56;;;9.33;100.00
18795;BME280;29610;49.022;12.114;2023-04-21T00:37:05;97347.31;;;9.26;100.00
18795;BME280;29610;49.022;12.114;2023-04-21T00:39:56;97347.97;;;8.97;100.00
18795;BME280;29610;49.022;12.114;2023-04-21T00:42:46;97345.91;;;9.03;100.00
18795;BME280;29610;49.022;12.114;2023-04-21T00:45:36;97344.63;;;8.92;100.00
18795;BME280;29610;49.022;12.114;2023-04-21T00:48:25;97350.50;;;8.76;100.00
18795;BME280;29610;49.022;12.114;2023-04-21T00:51:15;97344.78;;;8.78;100.00
18795;BME280;29610;49.022;12.114;2023-04-21T00:54:07;97350.34;;;8.73;100.00
18795;BME280;29610;49.022;12.114;2023-04-21T00:57:01;97352.41;;;8.67;100.00
18795;BME280;29610;49.022;12.114;2023-04-21T00:59:51;97360.53;;;8.67;100.00
18795;BME280;29610;49.022;12.114;2023-04-21T01:02:40;97362.59;;;8.62;100.00
18795;BME280;29610;49.022;12.114;2023-04-21T01:05:35;97361.31;;;8.51;100.00
18795;BME280;29610;49.022;12.114;2023-04-21T01:08:25;97361.78;;;8.53;100.00
18795;BME280;29610;49.022;12.114;2023-04-21T01:11:15;97363.72;;;8.61;100.00
18795;BME280;29610;49.022;12.114;2023-04-21T01:14:06;97374.09;;;8.67;100.00
18795;BME280;29610;49.022;12.114;2023-04-21T01:16:57;97363.56;;;8.74;100.00
18795;BME280;29610;49.022;12.114;2023-04-21T01:19:47;97369.00;;;8.66;100.00
18795;BME280;29610;49.022;12.114;2023-04-21T01:22:41;97368.34;;;8.69;100.00
18795;BME280;29610;49.022;12.114;2023-04-21T01:25:31;97371.22;;;8.64;100.00
18795;BME280;29610;49.022;12.114;2023-04-21T01:28:21;97374.72;;;8.64;100.00
18795;BME280;29610;49.022;12.114;2023-04-21T01:31:10;97367.84;;;8.58;100.00
18795;BME280;29610;49.022;12.114;2023-04-21T01:34:03;97366.56;;;8.56;100.00
18795;BME280;29610;49.022;12.114;2023-04-21T01:36:52;97368.00;;;8.53;100.00
18795;BME280;29610;49.022;12.114;2023-04-21T01:39:46;97372.00;;;8.56;100.00
18795;BME280;29610;49.022;12.114;2023-04-21T01:42:41;97362.22;;;8.29;100.00
18795;BME280;29610;49.022;12.114;2023-04-21T01:45:31;97371.28;;;8.25;100.00
18795;BME280;29610;49.022;12.114;2023-04-21T01:48:20;97375.25;;;8.27;100.00
18795;BME280;29610;49.022;12.114;2023-04-21T01:51:08;97376.22;;;8.23;100.00
18795;BME280;29610;49.022;12.114;2023-04-21T01:53:57;97365.38;;;8.31;100.00
18795;BME280;29610;49.022;12.114;2023-04-21T01:56:48;97365.56;;;8.26;100.00
18795;BME280;29610;49.022;12.114;2023-04-21T01:59:37;97367.25;;;8.22;100.00
18795;BME280;29610;49.022;12.114;2023-04-21T02:02:26;97367.38;;;8.17;100.00
18795;BME280;29610;49.022;12.114;2023-04-21T02:05:15;97375.75;;;7.99;100.00
18795;BME280;29610;49.022;12.114;2023-04-21T02:08:04;97369.97;;;7.83;100.00
18795;BME280;29610;49.022;12.114;2023-04-21T02:10:54;97370.66;;;7.67;100.00
18795;BME280;29610;49.022;12.114;2023-04-21T02:13:44;97371.94;;;7.69;100.00
18795;BME280;29610;49.022;12.114;2023-04-21T02:16:33;97370.22;;;7.73;100.00
18795;BME280;29610;49.022;12.114;2023-04-21T02:19:23;97366.41;;;7.74;100.00
18795;BME280;29610;49.022;12.114;2023-04-21T02:22:14;97370.72;;;7.75;100.00
18795;BME280;29610;49.022;12.114;2023-04-21T02:25:04;97373.31;;;7.80;100.00
18795;BME280;29610;49.022;12.114;2023-04-21T02:27:53;97373.44;;;7.84;100.00
18795;BME280;29610;49.022;12.114;2023-04-21T02:30:44;97378.47;;;7.99;100.00
18795;BME280;29610;49.022;12.114;2023-04-21T02:33:33;97379.00;;;7.79;100.00
18795;BME280;29610;49.022;12.114;2023-04-21T02:36:22;97372.00;;;7.78;100.00
18795;BME280;29610;49.022;12.114;2023-04-21T02:39:11;97368.84;;;7.84;100.00
18795;BME280;29610;49.022;12.114;2023-04-21T02:41:59;97374.06;;;7.81;100.00
18795;BME280;29610;49.022;12.114;2023-04-21T02:44:49;97369.47;;;7.81;100.00
18795;BME280;29610;49.022;12.114;2023-04-21T02:47:39;97375.94;;;7.72;100.00
18795;BME280;29610;49.022;12.114;2023-04-21T02:50:28;97377.06;;;7.71;100.00
18795;BME280;29610;49.022;12.114;2023-04-21T02:53:17;97366.38;;;7.66;100.00
18795;BME280;29610;49.022;12.114;2023-04-21T02:56:07;97367.28;;;7.61;100.00
18795;BME280;29610;49.022;12.114;2023-04-21T02:58:56;97374.94;;;7.59;100.00
18795;BME280;29610;49.022;12.114;2023-04-21T03:01:45;97373.88;;;7.69;100.00
18795;BME280;29610;49.022;12.114;2023-04-21T03:04:37;97370.66;;;7.67;100.00
18795;BME280;29610;49.022;12.114;2023-04-21T03:07:26;97365.25;;;7.67;100.00
18795;BME280;29610;49.022;12.114;2023-04-21T03:10:15;97377.06;;;7.71;100.00
18795;BME280;29610;49.022;12.114;2023-04-21T03:13:06;97371.94;;;7.69;100.00
18795;BME280;29610;49.022;12.114;2023-04-21T03:15:55;97376.75;;;7.72;100.00
18795;BME280;29610;49.022;12.114;2023-04-21T03:18:44;97375.19;;;7.80;100.00
18795;BME280;29610;49.022;12.114;2023-04-21T03:21:37;97380.78;;;7.83;100.00
18795;BME280;29610;49.022;12.114;2023-04-21T03:24:26;97390.31;;;7.81;100.00
18795;BME280;29610;49.022;12.114;2023-04-21T03:27:15;97385.38;;;7.83;100.00
18795;BME280;29610;49.022;12.114;2023-04-21T03:30:08;97385.34;;;7.74;100.00
18795;BME280;29610;49.022;12.114;2023-04-21T03:32:58;97388.00;;;7.66;100.00
18795;BME280;29610;49.022;12.114;2023-04-21T03:35:47;97382.41;;;7.62;100.00
18795;BME280;29610;49.022;12.114;2023-04-21T03:38:37;97384.19;;;7.67;100.00
18795;BME280;29610;49.022;12.114;2023-04-21T03:41:27;97396.44;;;7.64;100.00
18795;BME280;29610;49.022;12.114;2023-04-21T03:44:16;97383.34;;;7.58;100.00
18795;BME280;29610;49.022;12.114;2023-04-21T03:47:05;97383.16;;;7.54;100.00
18795;BME280;29610;49.022;12.114;2023-04-21T03:49:54;97394.63;;;7.60;100.00
18795;BME280;29610;49.022;12.114;2023-04-21T03:52:43;97393.72;;;7.64;100.00
18795;BME280;29610;49.022;12.114;2023-04-21T03:55:33;97385.19;;;7.71;100.00
18795;BME280;29610;49.022;12.114;2023-04-21T03:58:22;97396.78;;;7.71;100.00
18795;BME280;29610;49.022;12.114;2023-04-21T04:01:11;97385.78;;;7.68;100.00
18795;BME280;29610;49.022;12.114;2023-04-21T04:03:59;97383.03;;;7.59;100.00
18795;BME280;29610;49.022;12.114;2023-04-21T04:06:49;97378.78;;;7.67;100.00
18795;BME280;29610;49.022;12.114;2023-04-21T04:09:38;97379.16;;;7.74;100.00
18795;BME280;29610;49.022;12.114;2023-04-21T04:12:28;97385.47;;;7.69;100.00
18795;BME280;29610;49.022;12.114;2023-04-21T04:15:19;97376.00;;;7.80;100.00
18795;BME280;29610;49.022;12.114;2023-04-21T04:18:08;97378.56;;;7.85;100.00
18795;BME280;29610;49.022;12.114;2023-04-21T04:20:57;97376.97;;;7.84;100.00
18795;BME280;29610;49.022;12.114;2023-04-21T04:23:45;97376.16;;;7.84;100.00
18795;BME280;29610;49.022;12.114;2023-04-21T04:26:34;97376.97;;;7.84;100.00
18795;BME280;29610;49.022;12.114;2023-04-21T04:29:26;97380.09;;;7.78;100.00
18795;BME280;29610;49.022;12.114;2023-04-21T04:32:15;97383.34;;;7.88;100.00
18795;BME280;29610;49.022;12.114;2023-04-21T04:35:05;97387.22;;;7.96;100.00
18795;BME280;29610;49.022;12.114;2023-04-21T04:37:54;97388.88;;;8.14;100.00
18795;BME280;29610;49.022;12.114;2023-04-21T04:40:44;97390.44;;;8.06;100.00
18795;BME280;29610;49.022;12.114;2023-04-21T04:43:33;97397.09;;;8.00;100.00
18795;BME280;29610;49.022;12.114;2023-04-21T04:46:25;97407.03;;;8.13;100.00
18795;BME280;29610;49.022;12.114;2023-04-21T04:49:15;97400.50;;;8.14;100.00
18795;BME280;29610;49.022;12.114;2023-04-21T04:52:04;97401.53;;;8.27;100.00
18795;BME280;29610;49.022;12.114;2023-04-21T04:54:53;97404.00;;;8.45;100.00
18795;BME280;29610;49.022;12.114;2023-04-21T04:57:42;97406.72;;;8.45;100.00
18795;BME280;29610;49.022;12.114;2023-04-21T05:00:31;97402.69;;;8.43;100.00
18795;BME280;29610;49.022;12.114;2023-04-21T05:03:21;97401.88;;;8.34;100.00
18795;BME280;29610;49.022;12.114;2023-04-21T05:06:10;97395.34;;;8.35;100.00
18795;BME280;29610;49.022;12.114;2023-04-21T05:09:00;97390.41;;;8.37;100.00
18795;BME280;29610;49.022;12.114;2023-04-21T05:11:52;97396.34;;;8.47;100.00
18795;BME280;29610;49.022;12.114;2023-04-21T05:14:42;97395.84;;;8.37;100.00
18795;BME280;29610;49.022;12.114;2023-04-21T05:17:32;97392.66;;;8.43;100.00
18795;BME280;29610;49.022;12.114;2023-04-21T05:20:23;97393.81;;;8.51;100.00
18795;BME280;29610;49.022;12.114;2023-04-21T05:23:13;97401.75;;;8.47;100.00
18795;BME280;29610;49.022;12.114;2023-04-21T05:26:03;97406.59;;;8.67;100.00
18795;BME280;29610;49.022;12.114;2023-04-21T05:28:54;97409.47;;;8.79;100.00
18795;BME280;29610;49.022;12.114;2023-04-21T05:31:43;97402.31;;;8.83;100.00
18795;BME280;29610;49.022;12.114;2023-04-21T05:34:32;97399.00;;;8.95;100.00
18795;BME280;29610;49.022;12.114;2023-04-21T05:37:22;97402.66;;;8.99;100.00
18795;BME280;29610;49.022;12.114;2023-04-21T05:40:11;97402.97;;;8.98;100.00
18795;BME280;29610;49.022;12.114;2023-04-21T05:43:00;97401.34;;;8.79;100.00
18795;BME280;29610;49.022;12.114;2023-04-21T05:45:50;97403.44;;;9.08;100.00
18795;BME280;29610;49.022;12.114;2023-04-21T05:48:39;97404.72;;;9.28;100.00
18795;BME280;29610;49.022;12.114;2023-04-21T05:51:28;97409.81;;;9.46;100.00
18795;BME280;29610;49.022;12.114;2023-04-21T05:54:20;97407.06;;;9.72;100.00
18795;BME280;29610;49.022;12.114;2023-04-21T05:57:09;97400.38;;;9.69;100.00
18795;BME280;29610;49.022;12.114;2023-04-21T05:59:58;97401.63;;;9.89;100.00
18795;BME280;29610;49.022;12.114;2023-04-21T06:02:48;97398.38;;;10.21;100.00
18795;BME280;29610;49.022;12.114;2023-04-21T06:05:38;97404.56;;;10.21;100.00
18795;BME280;29610;49.022;12.114;2023-04-21T06:08:27;97402.84;;;10.55;100.00
18795;BME280;29610;49.022;12.114;2023-04-21T06:11:19;97405.00;;;10.61;100.00
18795;BME280;29610;49.022;12.114;2023-04-21T06:14:09;97400.53;;;10.65;100.00
18795;BME280;29610;49.022;12.114;2023-04-21T06:16:59;97409.69;;;10.61;100.00
18795;BME280;29610;49.022;12.114;2023-04-21T06:19:48;97398.84;;;10.81;100.00
18795;BME280;29610;49.022;12.114;2023-04-21T06:22:39;97405.63;;;10.96;100.00
18795;BME280;29610;49.022;12.114;2023-04-21T06:25:28;97396.53;;;11.12;100.00
18795;BME280;29610;49.022;12.114;2023-04-21T06:28:19;97392.84;;;11.17;100.00
18795;BME280;29610;49.022;12.114;2023-04-21T06:31:09;97394.94;;;11.11;100.00
18795;BME280;29610;49.022;12.114;2023-04-21T06:34:02;97391.41;;;11.31;100.00
18795;BME280;29610;49.022;12.114;2023-04-21T06:36:51;97386.94;;;11.47;100.00
18795;BME280;29610;49.022;12.114;2023-04-21T06:39:40;97382.44;;;11.51;100.00
18795;BME280;29610;49.022;12.114;2023-04-21T06:42:29;97390.22;;;11.61;100.00
18795;BME280;29610;49.022;12.114;2023-04-21T06:45:23;97395.22;;;11.39;100.00
18795;BME280;29610;49.022;12.114;2023-04-21T06:48:12;97393.91;;;11.77;100.00
18795;BME280;29610;49.022;12.114;2023-04-21T06:51:02;97390.75;;;11.88;100.00
18795;BME280;29610;49.022;12.114;2023-04-21T06:53:52;97383.88;;;12.02;100.00
18795;BME280;29610;49.022;12.114;2023-04-21T06:56:41;97388.38;;;11.86;100.00
18795;BME280;29610;49.022;12.114;2023-04-21T06:59:30;97387.28;;;12.11;100.00
18795;BME280;29610;49.022;12.114;2023-04-21T07:02:20;97391.19;;;12.58;100.00
18795;BME280;29610;49.022;12.114;2023-04-21T07:05:10;97390.13;;;13.11;100.00
18795;BME280;29610;49.022;12.114;2023-04-21T07:08:00;97388.56;;;13.50;100.00
18795;BME280;29610;49.022;12.114;2023-04-21T07:10:49;97382.66;;;13.91;100.00
18795;BME280;29610;49.022;12.114;2023-04-21T07:13:38;97382.44;;;14.42;100.00
18795;BME280;29610;49.022;12.114;2023-04-21T07:16:27;97386.19;;;15.00;100.00
18795;BME280;29610;49.022;12.114;2023-04-21T07:19:18;97382.16;;;15.48;100.00
18795;BME280;29610;49.022;12.114;2023-04-21T07:22:08;97374.84;;;15.93;100.00
18795;BME280;29610;49.022;12.114;2023-04-21T07:24:57;97376.22;;;16.26;100.00
18795;BME280;29610;49.022;12.114;2023-04-21T07:27:46;97368.06;;;16.06;100.00
18795;BME280;29610;49.022;12.114;2023-04-21T07:30:36;97370.19;;;16.62;100.00
18795;BME280;29610;49.022;12.114;2023-04-21T07:33:25;97361.94;;;17.14;100.00
18795;BME280;29610;49.022;12.114;2023-04-21T07:36:15;97363.31;;;16.97;100.00
18795;BME280;29610;49.022;12.114;2023-04-21T07:39:05;97363.78;;;17.62;100.00
18795;BME280;29610;49.022;12.114;2023-04-21T07:41:54;97356.41;;;18.06;100.00
18795;BME280;29610;49.022;12.114;2023-04-21T07:44:43;97361.50;;;18.41;100.00
18795;BME280;29610;49.022;12.114;2023-04-21T07:47:33;97358.06;;;18.14;100.00
18795;BME280;29610;49.022;12.114;2023-04-21T07:50:22;97362.81;;;18.57;100.00
18795;BME280;29610;49.022;12.114;2023-04-21T07:53:13;97358.41;;;18.97;100.00
18795;BME280;29610;49.022;12.114;2023-04-21T07:56:03;97362.13;;;19.25;100.00
18795;BME280;29610;49.022;12.114;2023-04-21T07:58:54;97357.53;;;19.50;100.00
18795;BME280;29610;49.022;12.114;2023-04-21T08:01:43;97357.22;;;19.62;100.00
18795;BME280;29610;49.022;12.114;2023-04-21T08:04:32;97366.25;;;19.56;100.00
18795;BME280;29610;49.022;12.114;2023-04-21T08:07:22;97360.03;;;19.87;100.00
18795;BME280;29610;49.022;12.114;2023-04-21T08:10:12;97363.94;;;19.75;100.00
18795;BME280;29610;49.022;12.114;2023-04-21T08:13:19;97371.19;;;19.26;100.00
18795;BME280;29610;49.022;12.114;2023-04-21T08:16:11;97364.75;;;19.04;100.00
18795;BME280;29610;49.022;12.114;2023-04-21T08:19:01;97364.44;;;18.22;100.00
18795;BME280;29610;49.022;12.114;2023-04-21T08:21:50;97367.88;;;18.48;100.00
18795;BME280;29610;49.022;12.114;2023-04-21T08:24:39;97374.00;;;18.78;100.00
18795;BME280;29610;49.022;12.114;2023-04-21T08:27:31;97366.69;;;19.04;100.00
18795;BME280;29610;49.022;12.114;2023-04-21T08:30:20;97373.09;;;19.15;100.00
18795;BME280;29610;49.022;12.114;2023-04-21T08:33:09;97380.56;;;19.14;100.00
18795;BME280;29610;49.022;12.114;2023-04-21T08:36:00;97368.75;;;18.59;100.00
18795;BME280;29610;49.022;12.114;2023-04-21T08:39:04;97377.09;;;18.73;100.00
18795;BME280;29610;49.022;12.114;2023-04-21T08:41:55;97374.66;;;18.61;100.00
18795;BME280;29610;49.022;12.114;2023-04-21T08:44:48;97366.78;;;18.60;100.00
18795;BME280;29610;49.022;12.114;2023-04-21T08:47:39;97370.91;;;18.40;100.00
18795;BME280;29610;49.022;12.114;2023-04-21T08:50:30;97372.78;;;17.92;100.00
18795;BME280;29610;49.022;12.114;2023-04-21T08:53:20;97371.56;;;17.90;100.00
18795;BME280;29610;49.022;12.114;2023-04-21T08:56:09;97371.28;;;17.98;100.00
18795;BME280;29610;49.022;12.114;2023-04-21T08:58:59;97381.47;;;18.74;100.00
18795;BME280;29610;49.022;12.114;2023-04-21T09:02:13;97370.72;;;19.17;100.00
18795;BME280;29610;49.022;12.114;2023-04-21T09:05:03;97362.59;;;19.34;100.00
18795;BME280;29610;49.022;12.114;2023-04-21T09:08:06;97365.88;;;19.61;100.00
18795;BME280;29610;49.022;12.114;2023-04-21T09:10:57;97360.97;;;20.26;100.00
18795;BME280;29610;49.022;12.114;2023-04-21T09:13:46;97353.88;;;20.60;100.00
18795;BME280;29610;49.022;12.114;2023-04-21T09:16:35;97360.97;;;20.89;100.00
18795;BME280;29610;49.022;12.114;2023-04-21T09:19:27;97360.97;;;20.86;100.00
18795;BME280;29610;49.022;12.114;2023-04-21T09:22:17;97368.09;;;20.83;100.00
18795;BME280;29610;49.022;12.114;2023-04-21T09:25:07;97367.66;;;20.43;100.00
18795;BME280;29610;49.022;12.114;2023-04-21T09:27:56;97362.97;;;20.82;100.00
18795;BME280;29610;49.022;12.114;2023-04-21T09:30:45;97354.69;;;20.68;100.00
18795;BME280;29610;49.022;12.114;2023-04-21T09:33:35;97361.38;;;20.81;100.00
18795;BME280;29610;49.022;12.114;2023-04-21T09:36:37;97353.09;;;20.91;100.00
18795;BME280;29610;49.022;12.114;2023-04-21T09:39:28;97360.59;;;20.59;100.00
18795;BME280;29610;49.022;12.114;2023-04-21T09:42:38;97366.47;;;20.22;100.00
18795;BME280;29610;49.022;12.114;2023-04-21T09:45:32;97358.59;;;20.49;100.00
18795;BME280;29610;49.022;12.114;2023-04-21T09:48:32;97359.78;;;20.80;100.00
18795;BME280;29610;49.022;12.114;2023-04-21T09:51:24;97358.59;;;20.91;100.00
18795;BME280;29610;49.022;12.114;2023-04-21T09:54:42;97349.75;;;21.63;100.00
18795;BME280;29610;49.022;12.114;2023-04-21T09:57:37;97353.34;;;21.49;100.00
18795;BME280;29610;49.022;12.114;2023-04-21T10:00:28;97341.00;;;21.75;100.00
18795;BME280;29610;49.022;12.114;2023-04-21T10:03:23;97340.00;;;22.17;100.00
18795;BME280;29610;49.022;12.114;2023-04-21T10:06:15;97338.22;;;22.54;100.00
18795;BME280;29610;49.022;12.114;2023-04-21T10:09:05;97339.69;;;23.10;98.04
18795;BME280;29610;49.022;12.114;2023-04-21T10:11:59;97331.94;;;23.65;92.28
18795;BME280;29610;49.022;12.114;2023-04-21T10:14:53;97337.00;;;23.74;88.64
18795;BME280;29610;49.022;12.114;2023-04-21T10:17:43;97338.78;;;24.17;91.09
18795;BME280;29610;49.022;12.114;2023-04-21T10:20:53;97325.28;;;24.19;83.42
18795;BME280;29610;49.022;12.114;2023-04-21T10:23:45;97320.56;;;24.16;84.34
18795;BME280;29610;49.022;12.114;2023-04-21T10:26:36;97318.88;;;24.22;81.23
18795;BME280;29610;49.022;12.114;2023-04-21T10:29:33;97320.81;;;24.25;75.76
18795;BME280;29610;49.022;12.114;2023-04-21T10:32:38;97309.91;;;24.65;70.48
18795;BME280;29610;49.022;12.114;2023-04-21T10:36:01;97300.53;;;25.01;74.61
18795;BME280;29610;49.022;12.114;2023-04-21T10:38:54;97300.91;;;25.65;67.29
18795;BME280;29610;49.022;12.114;2023-04-21T10:41:44;97302.47;;;26.38;67.80
18795;BME280;29610;49.022;12.114;2023-04-21T10:44:33;97306.13;;;26.51;58.43
18795;BME280;29610;49.022;12.114;2023-04-21T10:47:28;97307.03;;;25.57;57.51
18795;BME280;29610;49.022;12.114;2023-04-21T10:50:21;97298.88;;;24.34;62.98
18795;BME280;29610;49.022;12.114;2023-04-21T10:53:16;97297.75;;;25.44;57.85
18795;BME280;29610;49.022;12.114;2023-04-21T10:56:05;97304.25;;;24.72;66.42
18795;BME280;29610;49.022;12.114;2023-04-21T10:58:56;97291.97;;;25.74;56.94
18795;BME280;29610;49.022;12.114;2023-04-21T11:01:46;97293.75;;;26.20;58.03
18795;BME280;29610;49.022;12.114;2023-04-21T11:04:37;97288.47;;;25.89;61.63
18795;BME280;29610;49.022;12.114;2023-04-21T11:07:33;97290.28;;;25.41;62.04
18795;BME280;29610;49.022;12.114;2023-04-21T11:10:24;97295.47;;;25.39;61.82
18795;BME280;29610;49.022;12.114;2023-04-21T11:13:13;97288.47;;;25.70;60.21
18795;BME280;29610;49.022;12.114;2023-04-21T11:16:05;97291.44;;;25.43;55.88
18795;BME280;29610;49.022;12.114;2023-04-21T11:18:55;97286.75;;;25.56;56.30
18795;BME280;29610;49.022;12.114;2023-04-21T11:21:48;97290.34;;;25.37;53.57
18795;BME280;29610;49.022;12.114;2023-04-21T11:24:37;97289.09;;;25.77;56.36
18795;BME280;29610;49.022;12.114;2023-04-21T11:27:28;97290.88;;;26.39;56.90
18795;BME280;29610;49.022;12.114;2023-04-21T11:30:18;97285.25;;;26.75;54.87
18795;BME280;29610;49.022;12.114;2023-04-21T11:33:07;97293.41;;;27.14;52.79
18795;BME280;29610;49.022;12.114;2023-04-21T11:35:56;97274.97;;;27.33;49.78
18795;BME280;29610;49.022;12.114;2023-04-21T11:38:46;97283.34;;;27.33;50.56
18795;BME280;29610;49.022;12.114;2023-04-21T11:41:39;97271.75;;;27.34;49.03
18795;BME280;29610;49.022;12.114;2023-04-21T11:44:33;97270.47;;;27.92;51.87
18795;BME280;29610;49.022;12.114;2023-04-21T11:47:23;97269.66;;;26.61;49.49
18795;BME280;29610;49.022;12.114;2023-04-21T11:50:29;97265.56;;;27.68;53.47
18795;BME280;29610;49.022;12.114;2023-04-21T11:53:19;97266.41;;;27.40;49.40
18795;BME280;29610;49.022;12.114;2023-04-21T11:56:08;97261.09;;;27.00;47.75
18795;BME280;29610;49.022;12.114;2023-04-21T11:58:58;97265.31;;;25.92;48.31
18795;BME280;29610;49.022;12.114;2023-04-21T12:01:51;97261.63;;;26.63;52.62
18795;BME280;29610;49.022;12.114;2023-04-21T12:04:41;97257.28;;;27.52;48.85
18795;BME280;29610;49.022;12.114;2023-04-21T12:07:46;97254.56;;;27.89;47.41
18795;BME280;29610;49.022;12.114;2023-04-21T12:10:36;97255.88;;;27.85;46.71
18795;BME280;29610;49.022;12.114;2023-04-21T12:13:27;97254.97;;;27.88;44.10
18795;BME280;29610;49.022;12.114;2023-04-21T12:16:20;97247.28;;;27.67;48.33
18795;BME280;29610;49.022;12.114;2023-04-21T12:19:21;97252.81;;;26.97;49.29
18795;BME280;29610;49.022;12.114;2023-04-21T12:22:13;97244.31;;;26.72;50.88
18795;BME280;29610;49.022;12.114;2023-04-21T12:25:05;97236.47;;;26.19;51.68
18795;BME280;29610;49.022;12.114;2023-04-21T12:27:57;97246.47;;;26.96;54.02
18795;BME280;29610;49.022;12.114;2023-04-21T12:30:46;97237.91;;;27.86;52.54
18795;BME280;29610;49.022;12.114;2023-04-21T12:33:35;97227.13;;;28.85;45.78
18795;BME280;29610;49.022;12.114;2023-04-21T12:36:26;97231.50;;;27.60;45.66
18795;BME280;29610;49.022;12.114;2023-04-21T12:39:15;97230.34;;;28.49;50.33
18795;BME280;29610;49.022;12.114;2023-04-21T12:42:05;97210.75;;;28.96;45.47
18795;BME280;29610;49.022;12.114;2023-04-21T12:44:54;97220.25;;;28.39;44.42
18795;BME280;29610;49.022;12.114;2023-04-21T12:47:43;97208.19;;;28.54;45.97
18795;BME280;29610;49.022;12.114;2023-04-21T12:50:34;97219.94;;;27.99;46.52
18795;BME280;29610;49.022;12.114;2023-04-21T12:53:25;97212.03;;;27.32;48.49
18795;BME280;29610;49.022;12.114;2023-04-21T12:56:17;97204.19;;;28.30;46.13
18795;BME280;29610;49.022;12.114;2023-04-21T12:59:08;97194.94;;;28.67;46.22
18795;BME280;29610;49.022;12.114;2023-04-21T13:01:57;97197.84;;;28.98;49.29
18795;BME280;29610;49.022;12.114;2023-04-21T13:04:48;97198.22;;;29.43;43.36
18795;BME280;29610;49.022;12.114;2023-04-21T13:07:38;97197.81;;;29.11;43.95
18795;BME280;29610;49.022;12.114;2023-04-21T13:10:28;97200.09;;;27.44;46.08
18795;BME280;29610;49.022;12.114;2023-04-21T13:13:17;97209.06;;;27.22;47.10
18795;BME280;29610;49.022;12.114;2023-04-21T13:16:07;97205.53;;;27.88;49.29
18795;BME280;29610;49.022;12.114;2023-04-21T13:18:57;97194.22;;;28.54;46.46
18795;BME280;29610;49.022;12.114;2023-04-21T13:21:46;97200.63;;;28.17;48.97
18795;BME280;29610;49.022;12.114;2023-04-21T13:24:37;97197.00;;;28.29;46.14
18795;BME280;29610;49.022;12.114;2023-04-21T13:27:27;97195.91;;;27.77;47.20
18795;BME280;29610;49.022;12.114;2023-04-21T13:30:16;97189.31;;;28.80;45.86
18795;BME280;29610;49.022;12.114;2023-04-21T13:33:05;97195.63;;;28.93;44.78
18795;BME280;29610;49.022;12.114;2023-04-21T13:35:54;97190.50;;;28.92;43.00
18795;BME280;29610;49.022;12.114;2023-04-21T13:38:43;97192.09;;;29.14;44.39
18795;BME280;29610;49.022;12.114;2023-04-21T13:41:33;97183.59;;;28.84;44.23
18795;BME280;29610;49.022;12.114;2023-04-21T13:44:23;97179.31;;;29.35;45.39
18795;BME280;29610;49.022;12.114;2023-04-21T13:47:12;97176.44;;;29.17;45.67
18795;BME280;29610;49.022;12.114;2023-04-21T13:50:01;97184.03;;;27.19;46.85
18795;BME280;29610;49.022;12.114;2023-04-21T13:52:52;97176.53;;;27.45;45.42
18795;BME280;29610;49.022;12.114;2023-04-21T13:55:41;97173.28;;;27.34;48.29
18795;BME280;29610;49.022;12.114;2023-04-21T13:58:30;97164.19;;;27.71;47.78
18795;BME280;29610;49.022;12.114;2023-04-21T14:01:21;97164.50;;;28.23;45.91
18795;BME280;29610;49.022;12.114;2023-04-21T14:04:10;97172.03;;;28.01;46.82
18795;BME280;29610;49.022;12.114;2023-04-21T14:06:59;97162.75;;;27.91;47.14
18795;BME280;29610;49.022;12.114;2023-04-21T14:09:49;97154.72;;;27.93;48.15
18795;BME280;29610;49.022;12.114;2023-04-21T14:12:38;97149.19;;;28.15;46.42
18795;BME280;29610;49.022;12.114;2023-04-21T14:15:27;97161.50;;;27.13;49.14
18795;BME280;29610;49.022;12.114;2023-04-21T14:18:20;97155.47;;;26.74;46.37
18795;BME280;29610;49.022;12.114;2023-04-21T14:21:09;97149.81;;;26.77;46.53
18795;BME280;29610;49.022;12.114;2023-04-21T14:23:58;97156.16;;;27.19;46.82
18795;BME280;29610;49.022;12.114;2023-04-21T14:26:47;97144.19;;;26.93;46.46
18795;BME280;29610;49.022;12.114;2023-04-21T14:29:37;97146.13;;;26.80;43.45
18795;BME280;29610;49.022;12.114;2023-04-21T14:32:26;97127.56;;;26.45;42.11
18795;BME280;29610;49.022;12.114;2023-04-21T14:35:16;97134.13;;;25.90;44.86
18795;BME280;29610;49.022;12.114;2023-04-21T14:38:07;97130.22;;;25.88;41.78
18795;BME280;29610;49.022;12.114;2023-04-21T14:40:56;97128.00;;;25.63;42.01
18795;BME280;29610;49.022;12.114;2023-04-21T14:43:45;97120.00;;;25.49;42.32
18795;BME280;29610;49.022;12.114;2023-04-21T14:46:36;97130.88;;;25.60;45.02
18795;BME280;29610;49.022;12.114;2023-04-21T14:49:27;97132.16;;;25.20;45.50